Terminal Aerodrome Forecast
Issued by NWS Charleston, WV

Current Version | Previous Version | Graphics & Text | Print | Product List | Glossary On
Versions: 1 2 3 4 5 6 7 8 9 10 11 12 13 14 15 16 17 18 19 20 21 22 23
000
FTUS41 KRLX 210538
TAFBKW
TAF
KBKW 210538Z 2106/2206 21005KT P6SM OVC015
     FM210800 22005KT P6SM OVC025
     FM211400 23005KT P6SM BKN035
     FM212300 19005KT P6SM SCT050=

USA.gov is the U.S. government's official web portal to all federal, state and local government web resources and services.